Date,TemperatureHighF,TemperatureAvgF,TemperatureLowF,DewpointHighF,DewpointAvgF,DewpointLowF,HumidityHigh,HumidityAvg,HumidityLow,PressureMaxIn,PressureMinIn,WindSpeedMaxMPH,WindSpeedAvgMPH,GustSpeedMaxMPH,PrecipitationSumIn
2013-1-1,15.0,8.7,5.0,11.0,5.5,2.0,89,86,78,0.00,40.00,15,8,16,0.00
2013-1-2,19.0,8.4,0.0,12.0,2.7,-4.0,89,77,57,0.00,40.00,11,6,12,0.00
2013-1-3,23.0,10.1,0.0,8.0,0.8,-4.0,86,67,34,0.00,40.00,13,8,13,0.00
2013-1-4,25.0,14.1,9.0,8.0,1.3,-6.0,76,56,38,0.00,40.00,15,7,17,0.00
2013-1-5,29.0,18.4,8.0,12.0,2.7,-7.0,71,50,31,0.00,40.00,14,6,15,0.00
2013-1-6,36.0,25.0,17.0,13.0,6.3,2.0,63,45,26,0.00,40.00,14,6,14,0.00
2013-1-7,34.0,21.5,14.0,10.0,5.1,0.0,61,49,27,0.00,40.00,17,10,23,0.00
2013-1-8,30.0,27.7,24.0,26.0,23.4,20.0,88,83,77,0.00,40.00,16,7,23,0.00
2013-1-9,44.0,28.8,17.0,22.0,18.0,14.0,93,67,32,0.00,40.00,20,11,22,0.00
2013-1-10,45.0,31.0,13.0,23.0,15.8,10.0,93,58,26,0.00,40.00,25,13,41,0.00
2013-1-11,13.0,9.6,7.0,10.0,6.8,4.0,89,88,87,0.00,40.00,27,19,32,0.00
2013-1-12,7.0,4.3,-3.0,4.0,0.4,-9.0,87,83,70,0.00,40.00,18,11,22,0.00
2013-1-13,9.0,-1.6,-8.0,1.0,-6.7,-12.0,82,78,67,0.00,40.00,12,5,17,0.00
2013-1-14,4.0,-3.2,-9.0,-5.0,-8.2,-13.0,83,78,64,0.00,40.00,16,7,18,0.00
2013-1-15,12.0,5.6,-1.0,7.0,1.1,-5.0,87,81,71,0.00,40.00,17,8,22,0.00
2013-1-16,22.0,13.1,4.0,15.0,9.1,1.0,91,84,71,0.00,40.00,12,6,14,0.00
2013-1-17,35.0,17.8,7.0,18.0,11.8,4.0,90,78,50,0.00,40.00,13,8,13,0.00
2013-1-18,32.0,22.4,15.0,15.0,9.7,1.0,80,59,33,0.00,40.00,14,8,15,0.00
2013-1-19,37.0,25.9,18.0,13.0,7.0,2.0,61,45,27,0.00,40.00,11,5,11,0.00
2013-1-20,34.0,24.3,17.0,10.0,5.5,2.0,58,44,27,0.00,40.00,14,6,15,0.00
2013-1-21,37.0,25.3,16.0,14.0,7.2,3.0,57,46,29,0.00,40.00,12,7,13,0.00
2013-1-22,45.0,30.2,20.0,11.0,5.9,-2.0,52,36,14,0.00,40.00,13,7,14,0.00
2013-1-23,49.0,36.7,28.0,17.0,8.1,1.0,47,30,14,0.00,40.00,14,6,14,0.00
2013-1-24,40.0,33.6,31.0,33.0,29.1,16.0,94,84,43,0.00,40.00,8,4,11,0.00
2013-1-25,38.0,34.0,30.0,33.0,30.8,28.0,95,88,71,0.00,40.00,9,4,9,0.00
2013-1-26,39.0,32.7,27.0,30.0,28.5,25.0,93,84,67,0.00,40.00,9,5,10,0.00
2013-1-27,37.0,27.6,18.0,31.0,25.5,16.0,96,92,57,0.00,40.00,33,8,46,0.00
2013-1-28,18.0,14.9,11.0,16.0,12.2,7.0,92,88,80,0.00,40.00,19,10,21,0.00
2013-1-29,20.0,15.3,11.0,18.0,11.8,8.0,91,86,76,0.00,40.00,18,8,23,0.00
2013-1-30,29.0,23.2,16.0,26.0,21.2,14.0,95,91,84,0.00,40.00,35,18,49,0.00
2013-1-31,31.0,28.9,27.0,23.0,22.0,21.0,82,75,66,0.00,40.00,28,15,38,0.00
2013-2-1,35.0,28.5,23.0,23.0,21.1,16.0,85,73,60,0.00,40.00,24,9,31,0.00
2013-2-2,39.0,26.2,18.0,19.0,14.2,8.0,81,61,33,0.00,40.00,12,7,15,0.00
2013-2-3,36.0,27.9,23.0,16.0,11.1,6.0,64,50,30,0.00,40.00,15,8,18,0.00
2013-2-4,36.0,28.8,22.0,18.0,14.0,11.0,68,54,38,0.00,40.00,17,8,22,0.00
2013-2-5,46.0,31.3,23.0,15.0,12.5,9.0,64,46,23,0.00,40.00,12,7,13,0.00
2013-2-6,35.0,29.9,19.0,19.0,15.1,11.0,76,54,36,0.00,40.00,18,7,23,0.00
2013-2-7,40.0,24.4,14.0,13.0,8.0,0.0,75,53,18,0.00,40.00,21,8,21,0.00
2013-2-8,34.0,26.9,22.0,24.0,17.9,12.0,93,69,51,0.00,40.00,21,11,29,0.00
2013-2-9,22.0,19.9,17.0,20.0,17.8,15.0,92,91,87,0.00,40.00,18,8,23,0.00
2013-2-10,21.0,16.7,12.0,18.0,14.3,9.0,91,90,84,0.00,40.00,13,7,16,0.00
2013-2-11,20.0,12.1,7.0,12.0,7.5,1.0,89,81,62,0.00,40.00,14,6,19,0.00
2013-2-12,23.0,16.8,9.0,15.0,9.6,-3.0,86,73,52,0.00,40.00,13,7,18,0.00
2013-2-13,28.0,22.8,17.0,21.0,17.8,14.0,88,80,70,0.00,40.00,18,10,21,0.00
2013-2-14,29.0,25.1,19.0,23.0,19.5,15.0,89,79,60,0.00,40.00,15,10,24,0.00
2013-2-15,33.0,24.6,20.0,21.0,17.4,15.0,83,74,57,0.00,40.00,18,6,24,0.00
2013-2-16,43.0,27.9,18.0,17.0,13.6,6.0,85,58,28,0.00,40.00,12,8,14,0.00
2013-2-17,35.0,26.8,17.0,21.0,12.3,2.0,86,57,28,0.00,40.00,26,11,31,0.00
2013-2-18,29.0,20.2,12.0,11.0,7.8,3.0,78,59,42,0.00,40.00,14,6,16,0.00
2013-2-19,43.0,30.1,19.0,12.0,5.7,0.0,50,36,16,0.00,40.00,17,10,23,0.00
2013-2-20,36.0,26.4,22.0,24.0,16.5,8.0,94,67,44,0.00,40.00,15,11,20,0.00
2013-2-21,22.0,18.4,14.0,20.0,14.9,9.0,93,86,66,0.00,40.00,16,11,22,0.00
2013-2-22,23.0,17.5,13.0,17.0,12.7,8.0,91,81,69,0.00,40.00,21,9,29,0.00
2013-2-23,23.0,16.9,14.0,19.0,13.6,10.0,92,86,78,0.00,40.00,30,14,39,0.00
2013-2-24,22.0,15.6,10.0,17.0,11.6,4.0,90,84,69,0.00,40.00,14,7,20,0.00
2013-2-25,28.0,16.2,6.0,14.0,6.5,2.0,86,67,39,0.00,40.00,14,8,17,0.00
2013-2-26,20.0,16.3,10.0,16.0,12.7,5.0,91,85,74,0.00,40.00,19,10,28,0.00
2013-2-27,24.0,15.5,6.0,10.0,4.6,2.0,84,62,39,0.00,40.00,15,8,22,0.00
2013-2-28,32.0,22.7,11.0,15.0,8.8,3.0,75,55,33,0.00,40.00,16,9,20,0.00
2013-3-1,39.0,32.4,27.0,26.0,23.3,14.0,78,68,51,0.00,40.00,22,9,26,0.00
2013-3-2,45.0,33.6,23.0,27.0,22.0,19.0,86,64,38,0.00,40.00,15,8,19,0.00
2013-3-3,38.0,33.0,31.0,32.0,27.5,17.0,96,82,44,0.00,40.00,16,9,22,0.00
2013-3-4,32.0,23.1,14.0,31.0,12.5,0.0,96,66,33,0.00,40.00,19,11,24,0.00
2013-3-5,45.0,26.0,10.0,13.0,6.1,-1.0,73,45,19,0.00,40.00,17,9,18,0.00
2013-3-6,48.0,37.5,27.0,30.0,16.5,10.0,94,45,24,0.00,40.00,20,12,30,0.00
2013-3-7,45.0,32.4,26.0,29.0,26.2,24.0,95,79,46,0.00,40.00,20,9,25,0.00
2013-3-8,39.0,32.5,29.0,30.0,28.5,27.0,95,86,61,0.00,40.00,13,7,16,0.00
2013-3-9,39.0,29.8,24.0,29.0,22.4,8.0,95,75,41,0.00,40.00,19,6,23,0.00
2013-3-10,25.0,21.3,20.0,12.0,11.5,11.0,70,65,55,0.00,40.00,6,3,8,0.00
2013-3-11,42.0,34.7,26.0,26.0,18.8,13.0,66,52,37,0.00,40.00,28,13,41,0.00
2013-3-12,44.0,37.4,33.0,30.0,27.6,25.0,85,68,48,0.00,40.00,19,9,24,0.00
2013-3-13,54.0,41.1,31.0,28.0,23.5,20.0,74,52,26,0.00,40.00,13,7,17,0.00
2013-3-14,61.0,47.0,35.0,24.0,20.4,10.0,55,36,13,0.00,40.00,17,9,20,0.00
2013-3-15,57.0,49.5,42.0,25.0,18.1,12.0,42,29,17,0.00,40.00,21,9,27,0.00
2013-3-16,46.0,41.0,36.0,25.0,18.1,11.0,54,39,28,0.00,40.00,24,10,32,0.00
2013-3-17,42.0,31.4,25.0,30.0,20.1,9.0,93,64,32,0.00,40.00,31,17,48,0.00
2013-3-18,38.0,30.4,24.0,18.0,12.3,7.0,78,47,32,0.00,40.00,27,13,37,0.00
2013-3-19,43.0,33.6,24.0,13.0,-0.8,-15.0,50,26,8,0.00,40.00,14,6,19,0.00
2013-3-20,39.0,34.5,29.0,35.0,22.0,1.0,94,65,25,0.00,40.00,15,7,21,0.00
2013-3-21,41.0,26.9,20.0,32.0,19.9,6.0,95,76,41,0.00,40.00,29,15,42,0.00
2013-3-22,22.0,18.7,15.0,17.0,10.9,5.0,91,72,52,0.00,40.00,22,8,31,0.00
2013-3-23,23.0,15.7,10.0,15.0,10.3,4.0,90,79,51,0.00,40.00,20,8,24,0.00
2013-3-24,27.0,16.3,7.0,14.0,7.2,2.0,81,67,43,0.00,40.00,20,7,25,0.00
2013-3-25,38.0,23.4,8.0,20.0,9.8,2.0,81,57,34,0.00,40.00,17,8,18,0.00
2013-3-26,48.0,35.3,27.0,28.0,19.3,12.0,85,54,24,0.00,40.00,20,9,28,0.00
2013-3-27,53.0,39.1,27.0,27.0,22.1,17.0,86,55,23,0.00,40.00,15,7,19,0.00
2013-3-28,56.0,43.1,32.0,25.0,21.0,17.0,66,43,21,0.00,40.00,14,7,23,0.00
2013-3-29,54.0,45.2,37.0,30.0,25.8,21.0,73,48,28,0.00,40.00,21,8,27,0.00
2013-3-30,55.0,44.5,35.0,28.0,23.0,-99.9,64,45,24,0.00,40.00,20,8,30,0.00
2013-3-31,58.0,44.2,29.0,25.0,18.0,4.0,73,40,11,0.00,40.00,18,8,26,0.00
2013-4-1,47.0,38.7,32.0,35.0,31.7,25.0,94,77,41,0.00,40.00,18,7,21,0.00
2013-4-2,50.0,37.6,31.0,34.0,30.8,27.0,95,78,43,0.00,40.00,11,3,17,0.00
2013-4-3,55.0,44.6,35.0,34.0,28.3,18.0,84,55,25,0.00,40.00,19,7,23,0.00
2013-4-4,60.0,47.4,34.0,28.0,22.2,18.0,65,39,21,0.00,40.00,18,7,25,0.00
2013-4-5,52.0,42.8,31.0,37.0,27.9,20.0,95,59,28,0.00,40.00,21,9,34,0.00
2013-4-6,47.0,39.4,32.0,33.0,25.1,19.0,84,57,32,0.00,40.00,19,9,27,0.00
2013-4-7,49.0,41.4,32.0,31.0,24.9,18.0,80,54,30,0.00,40.00,23,10,29,0.00
2013-4-8,44.0,33.2,20.0,33.0,27.3,16.0,96,82,32,0.00,40.00,18,6,33,0.00
2013-4-9,24.0,16.9,12.0,18.0,10.2,7.0,92,75,53,0.00,40.00,21,11,40,0.00
2013-4-10,38.0,21.2,12.0,21.0,11.3,7.0,81,66,32,0.00,40.00,17,7,21,0.00
2013-4-11,42.0,37.8,32.0,31.0,28.2,22.0,96,68,54,0.00,40.00,14,8,22,0.00
2013-4-12,48.0,38.5,29.0,26.0,21.0,13.0,74,51,25,0.00,40.00,17,6,23,0.00
2013-4-13,47.0,38.0,25.0,33.0,23.7,14.0,95,60,26,0.00,40.00,25,12,42,0.00
2013-4-14,34.0,27.2,20.0,21.0,7.9,-1.0,88,45,26,0.00,40.00,22,11,31,0.00
2013-4-15,36.0,27.8,23.0,27.0,22.7,15.0,95,82,45,0.00,40.00,18,7,19,0.00
2013-4-16,29.0,25.5,21.0,23.0,17.2,11.0,90,71,50,0.00,40.00,12,5,21,0.00
2013-4-17,32.0,22.4,16.0,22.0,10.2,5.0,82,60,38,0.00,40.00,22,8,29,0.00
2013-4-18,35.0,26.9,17.0,13.0,3.3,-6.0,60,36,22,0.00,40.00,24,9,31,0.00
2013-4-19,41.0,32.1,24.0,31.0,17.9,4.0,94,56,34,0.00,40.00,20,9,27,0.00
2013-4-20,41.0,34.1,31.0,34.0,30.3,26.0,96,86,59,0.00,40.00,22,11,29,0.00
2013-4-21,51.0,40.6,30.0,26.0,23.1,19.0,79,52,29,0.00,40.00,22,9,31,0.00
2013-4-22,42.0,36.6,27.0,28.0,20.7,9.0,87,53,29,0.00,40.00,23,12,36,0.00
2013-4-23,39.0,29.1,19.0,20.0,10.5,-11.0,83,50,11,0.00,40.00,19,8,24,0.00
2013-4-24,51.0,37.4,26.0,16.0,6.1,-8.0,46,28,11,0.00,40.00,16,6,26,0.00
2013-4-25,53.0,40.8,28.0,17.0,7.5,-12.0,55,28,7,0.00,40.00,22,10,30,0.00
2013-4-26,57.0,45.9,32.0,18.0,8.0,-5.0,39,21,14,0.00,40.00,19,8,32,0.00
2013-4-27,60.0,49.7,36.0,20.0,14.2,6.0,39,24,15,0.00,40.00,22,10,31,0.00
2013-4-28,64.0,53.4,41.0,25.0,20.1,17.0,41,27,18,0.00,40.00,23,10,32,0.00
2013-4-29,62.0,52.4,42.0,25.0,22.0,18.0,46,30,23,0.00,40.00,21,12,32,0.00
2013-4-30,51.0,43.3,32.0,27.0,11.7,-6.0,54,29,14,0.00,40.00,26,12,37,0.00
2013-5-1,38.0,29.9,23.0,26.0,9.8,-6.0,89,46,18,0.00,40.00,20,10,36,0.00
2013-5-2,52.0,37.4,24.0,18.0,11.8,-1.0,76,39,13,0.00,40.00,16,6,20,0.00
2013-5-3,59.0,45.2,32.0,16.0,10.2,-1.0,49,27,9,0.00,40.00,16,8,26,0.00
2013-5-4,59.0,47.3,34.0,30.0,14.0,-3.0,59,27,13,0.00,40.00,18,7,29,0.00
2013-5-5,63.0,48.2,36.0,31.0,25.1,19.0,64,43,19,0.00,40.00,25,14,32,0.00
2013-5-6,59.0,48.0,41.0,39.0,30.0,21.0,82,51,22,0.00,40.00,16,7,21,0.00
2013-5-7,56.0,44.1,36.0,38.0,33.3,23.0,93,69,32,0.00,40.00,17,6,26,0.00
2013-5-8,51.0,42.0,33.0,43.0,35.9,31.0,91,79,56,0.00,40.00,15,7,21,0.00
2013-5-9,63.0,48.4,35.0,37.0,30.3,18.0,91,57,17,0.00,40.00,18,8,26,0.00
2013-5-10,66.0,51.5,39.0,40.0,29.1,-99.9,72,46,18,0.00,40.00,18,7,25,0.00
2013-5-11,68.0,55.1,41.0,33.0,25.0,-99.9,69,36,13,0.00,40.00,20,9,28,0.00
2013-5-12,72.0,59.8,46.0,27.0,23.4,17.0,42,25,16,0.00,40.00,21,9,31,0.00
2013-5-13,78.0,64.0,49.0,30.0,25.9,22.0,45,25,12,0.00,40.00,19,9,27,0.00
2013-5-14,75.0,66.4,56.0,35.0,28.0,21.0,33,23,13,0.00,40.00,16,7,25,0.00
2013-5-15,74.0,61.0,52.0,38.0,31.0,22.0,50,33,14,0.00,40.00,24,8,32,0.00
2013-5-16,68.0,54.6,48.0,42.0,20.4,-99.9,66,42,25,0.00,40.00,19,8,41,0.00
2013-5-17,55.0,47.8,43.0,43.0,35.9,-99.9,94,70,43,0.00,40.00,22,7,36,0.00
2013-5-18,50.0,41.8,38.0,41.0,35.4,29.0,95,79,47,0.00,40.00,18,9,25,0.00
2013-5-19,51.0,41.9,33.0,38.0,33.2,29.0,95,72,48,0.00,40.00,21,10,31,0.00
2013-5-20,51.0,42.9,37.0,43.0,37.6,32.0,95,82,63,0.00,40.00,17,9,22,0.00
2013-5-21,63.0,50.4,37.0,38.0,31.0,20.0,90,53,19,0.00,40.00,14,6,19,0.00
2013-5-22,72.0,56.2,38.0,38.0,25.5,16.0,76,34,13,0.00,40.00,30,11,44,0.00
2013-5-23,63.0,45.5,31.0,33.0,27.3,22.0,82,52,22,0.00,40.00,23,12,35,0.00
2013-5-24,64.0,50.0,36.0,27.0,17.8,5.0,56,30,10,0.00,40.00,18,7,27,0.00
2013-5-25,70.0,58.9,47.0,22.0,16.4,9.0,33,19,10,0.00,40.00,20,7,33,0.00
2013-5-26,69.0,60.3,50.0,22.0,14.0,7.0,26,16,9,0.00,40.00,23,6,38,0.00
2013-5-27,61.0,53.0,44.0,34.0,28.0,19.0,58,38,22,0.00,40.00,19,8,25,0.00
2013-5-28,53.0,43.8,38.0,42.0,34.8,24.0,94,73,35,0.00,40.00,21,8,31,0.00
2013-5-29,52.0,42.7,36.0,37.0,33.5,24.0,95,72,37,0.00,40.00,20,10,30,0.00
2013-5-30,53.0,44.4,36.0,37.0,30.9,24.0,89,61,35,0.00,40.00,22,9,29,0.00
2013-5-31,54.0,46.3,38.0,27.0,21.5,12.0,59,38,22,0.00,40.00,23,11,32,0.00
2013-6-1,64.0,51.7,36.0,30.0,22.2,9.0,52,32,13,0.00,40.00,14,8,23,0.00
2013-6-2,77.0,62.4,46.0,29.0,22.0,12.0,45,24,9,0.00,40.00,21,11,33,0.00
2013-6-3,64.0,55.7,47.0,27.0,17.5,9.0,42,22,13,0.00,40.00,19,11,26,0.00
2013-6-4,66.0,55.9,43.0,30.0,21.8,11.0,41,26,19,0.00,40.00,19,10,30,0.00
2013-6-5,67.0,56.0,42.0,34.0,28.1,21.0,61,36,18,0.00,40.00,17,8,23,0.00
2013-6-6,72.0,60.4,46.0,34.0,29.2,24.0,55,32,18,0.00,40.00,20,8,28,0.00
2013-6-7,75.0,63.6,49.0,38.0,31.4,27.0,50,30,18,0.00,40.00,18,9,29,0.00
2013-6-8,71.0,65.1,58.0,37.0,31.1,22.0,44,28,19,0.00,40.00,21,11,27,0.00
2013-6-9,82.0,67.6,53.0,37.0,30.0,23.0,38,25,14,0.00,40.00,17,7,27,0.00
2013-6-10,83.0,72.0,60.0,36.0,24.5,7.0,34,19,6,0.00,40.00,21,9,32,0.00
2013-6-11,74.0,66.9,61.0,27.0,19.6,11.0,26,16,11,0.00,40.00,21,12,32,0.00
2013-6-12,75.0,64.9,52.0,36.0,27.5,17.0,41,25,11,0.00,40.00,19,8,27,0.00
2013-6-13,78.0,68.2,50.0,36.0,27.2,16.0,51,23,9,0.00,40.00,26,13,43,0.00
2013-6-14,62.0,52.4,40.0,34.0,28.4,20.0,60,40,25,0.00,40.00,18,8,24,0.00
2013-6-15,74.0,56.8,38.0,38.0,25.5,18.0,53,31,13,0.00,40.00,16,9,22,0.00
2013-6-16,77.0,65.5,47.0,29.0,18.6,8.0,32,18,6,0.00,40.00,21,9,32,0.00
2013-6-17,79.0,64.8,48.0,32.0,18.8,9.0,31,18,7,0.00,40.00,16,8,24,0.00
2013-6-18,80.0,67.6,51.0,38.0,17.9,7.0,26,16,7,0.00,40.00,16,9,27,0.00
2013-6-19,69.0,61.1,47.0,36.0,20.0,7.0,36,21,8,0.00,40.00,24,12,35,0.00
2013-6-20,62.0,46.6,36.0,29.0,23.0,15.0,60,40,22,0.00,40.00,16,7,23,0.00
2013-6-21,65.0,63.5,62.0,32.0,30.2,28.0,30,28,26,0.00,40.00,12,10,19,0.00
2013-6-22,62.0,57.3,45.0,33.0,27.5,23.0,54,32,25,0.00,40.00,19,12,26,0.00
2013-6-23,73.0,59.1,40.0,35.0,27.0,23.0,58,31,16,0.00,40.00,15,7,19,0.00
2013-6-24,72.0,66.5,60.0,31.0,27.4,21.0,30,23,17,0.00,40.00,23,12,41,0.00
2013-6-25,74.0,63.5,50.0,44.0,38.7,35.0,72,42,24,0.00,40.00,16,6,22,0.00
2013-6-26,80.0,70.2,59.0,47.0,40.6,34.0,51,34,24,0.00,40.00,15,7,20,0.00
2013-6-27,86.0,70.5,55.0,46.0,40.9,36.0,59,37,17,0.00,40.00,16,7,20,0.00
2013-6-28,88.0,71.9,58.0,42.0,38.7,32.0,52,32,13,0.00,40.00,14,8,16,0.00
2013-7-2,88.0,79.2,69.0,45.0,38.5,31.0,31,23,13,0.00,40.00,15,5,17,0.00
2013-7-3,83.0,73.2,60.0,50.0,43.2,37.0,47,34,24,0.00,40.00,15,5,18,0.00
2013-7-4,77.0,67.4,56.0,56.0,50.4,43.0,94,58,30,0.00,40.00,21,8,35,0.00
2013-7-5,79.0,66.4,55.0,55.0,49.6,43.0,93,58,29,0.00,40.00,31,9,41,0.00
2013-7-6,75.0,59.2,54.0,52.0,49.6,36.0,90,72,26,0.00,40.00,16,9,21,0.00
2013-7-7,77.0,63.7,53.0,53.0,47.2,39.0,83,57,29,0.00,40.00,23,10,28,0.00
2013-7-8,76.0,63.7,56.0,50.0,46.6,38.0,76,56,29,0.00,40.00,16,8,30,0.00
2013-7-9,85.0,70.2,60.0,46.0,38.7,27.0,50,34,12,0.00,40.00,12,6,18,0.00
2013-7-10,87.0,69.1,55.0,37.0,26.1,-99.9,42,23,10,0.00,40.00,12,7,16,0.00
2013-7-11,78.0,67.9,57.0,51.0,41.0,24.0,75,40,20,0.00,40.00,26,8,39,0.00
2013-7-12,75.0,61.2,55.0,54.0,50.4,43.0,92,70,33,0.00,40.00,12,6,15,0.00
2013-7-13,77.0,65.5,58.0,54.0,49.5,41.0,75,58,28,0.00,40.00,22,8,37,0.00
2013-7-14,81.0,65.8,51.0,50.0,44.7,33.0,89,53,17,0.00,40.00,18,9,21,0.00
2013-7-15,85.0,70.4,56.0,50.0,43.2,40.0,60,39,21,0.00,40.00,19,8,23,0.00
2013-7-16,80.0,67.0,57.0,61.0,50.2,46.0,93,57,32,0.00,40.00,16,8,22,0.00
2013-7-17,79.0,66.5,56.0,58.0,52.2,41.0,89,63,25,0.00,40.00,20,10,24,0.00
2013-7-18,85.0,70.3,55.0,53.0,47.6,37.0,85,49,19,0.00,40.00,15,7,17,0.00
2013-7-19,86.0,71.5,57.0,43.0,36.7,23.0,53,31,10,0.00,40.00,11,6,16,0.00
2013-7-20,86.0,71.4,56.0,37.0,26.4,-99.9,38,21,10,0.00,40.00,14,7,22,0.00
2013-7-21,86.0,73.1,58.0,36.0,28.3,24.0,37,20,10,0.00,40.00,15,8,23,0.00
2013-7-22,86.0,74.4,58.0,38.0,28.2,17.0,32,19,7,0.00,40.00,16,8,21,0.00
2013-7-23,85.0,74.7,62.0,34.0,28.7,23.0,30,19,12,0.00,40.00,12,7,18,0.00
2013-7-24,79.0,69.9,57.0,46.0,36.7,18.0,52,30,14,0.00,40.00,18,7,29,0.00
2013-7-25,82.0,70.5,59.0,49.0,39.9,29.0,59,36,14,0.00,40.00,17,8,22,0.00
2013-7-26,85.0,72.0,59.0,40.0,32.9,24.0,43,25,11,0.00,40.00,19,7,27,0.00
2013-7-27,70.0,64.3,58.0,52.0,43.3,28.0,77,49,21,0.00,40.00,13,6,18,0.00
2013-7-28,74.0,62.9,54.0,51.0,47.4,40.0,85,60,31,0.00,40.00,18,7,27,0.00
2013-7-29,73.0,61.0,53.0,48.0,44.8,41.0,76,56,32,0.00,40.00,18,7,22,0.00
2013-7-30,80.0,66.9,55.0,45.0,38.5,27.0,67,39,14,0.00,40.00,18,9,31,0.00
2013-7-31,84.0,74.5,61.0,39.0,30.1,21.0,35,21,10,0.00,40.00,22,8,27,0.00
2013-8-1,83.0,74.9,63.0,50.0,40.6,30.0,44,29,20,0.00,40.00,21,10,33,0.00
2013-8-2,81.0,68.4,55.0,44.0,30.6,16.0,45,26,8,0.00,40.00,22,7,38,0.00
2013-8-3,82.0,73.2,61.0,29.0,23.7,19.0,25,16,9,0.00,40.00,22,8,30,0.00
2013-8-4,84.0,73.5,62.0,34.0,28.8,25.0,29,19,13,0.00,40.00,23,7,30,0.00
2013-8-5,81.0,70.2,60.0,40.0,32.1,27.0,37,25,13,0.00,40.00,23,7,38,0.00
2013-8-6,83.0,69.9,60.0,38.0,32.4,25.0,41,26,12,0.00,40.00,21,8,29,0.00
2013-8-7,81.0,67.4,57.0,38.0,31.9,28.0,40,27,14,0.00,40.00,24,9,33,0.00
2013-8-8,75.0,60.9,54.0,49.0,39.6,30.0,79,46,18,0.00,40.00,15,8,18,0.00
2013-8-9,76.0,61.0,48.0,44.0,37.5,28.0,78,44,17,0.00,40.00,23,11,33,0.00
2013-8-10,80.0,63.8,53.0,38.0,33.6,19.0,54,35,11,0.00,40.00,21,8,30,0.00
2013-8-11,80.0,66.4,56.0,37.0,33.6,24.0,47,31,13,0.00,40.00,15,8,21,0.00
2013-8-12,75.0,64.9,55.0,38.0,34.2,30.0,46,32,20,0.00,40.00,15,8,24,0.00
2013-8-13,80.0,62.0,53.0,38.0,29.4,-99.9,55,35,11,0.00,40.00,13,8,16,0.00
2013-8-14,83.0,65.2,54.0,35.0,22.7,-99.9,45,26,9,0.00,40.00,17,10,26,0.00
2013-8-15,84.0,56.8,55.0,28.0,2.3,-99.9,33,16,8,0.00,40.00,17,7,23,0.00
2013-8-16,84.0,67.0,59.0,31.0,16.1,-99.9,26,16,11,0.00,40.00,19,9,22,0.00
2013-8-17,83.0,67.8,56.0,47.0,33.0,-99.9,69,31,15,0.00,40.00,18,11,32,0.00
2013-8-18,83.0,68.5,55.0,46.0,41.0,35.0,69,41,18,0.00,40.00,18,10,24,0.00
2013-8-19,82.0,63.1,59.0,44.0,27.8,-99.9,48,36,24,0.00,40.00,16,9,25,0.00
2013-8-20,79.0,66.6,61.0,48.0,40.7,-99.9,59,42,25,0.00,40.00,16,8,21,0.00
2013-8-21,79.0,67.4,55.0,48.0,44.0,37.0,71,46,23,0.00,40.00,15,9,22,0.00
2013-8-22,73.0,64.5,56.0,51.0,44.2,37.0,85,48,30,0.00,40.00,21,8,26,0.00
2013-8-23,66.0,58.8,54.0,54.0,50.7,48.0,88,74,53,0.00,40.00,16,8,20,0.00
2013-8-24,73.0,56.6,50.0,52.0,45.5,-99.9,92,72,29,0.00,40.00,25,7,33,0.00
2013-8-25,72.0,61.9,50.0,48.0,44.5,40.0,79,55,33,0.00,40.00,12,7,15,0.00
2013-8-26,67.0,61.8,56.0,50.0,47.3,42.0,72,59,41,0.00,40.00,15,6,19,0.00
2013-8-27,68.0,59.7,55.0,51.0,49.3,48.0,80,69,50,0.00,40.00,9,6,13,0.00
2013-8-28,78.0,71.9,65.0,54.0,45.2,41.0,64,39,27,0.00,40.00,17,7,26,0.00
2013-8-29,81.0,70.9,57.0,48.0,44.3,40.0,64,40,25,0.00,40.00,15,8,20,0.00
2013-8-30,83.0,70.9,58.0,45.0,43.5,41.0,62,39,23,0.00,40.00,17,8,25,0.00
2013-8-31,80.0,67.9,59.0,49.0,42.6,-99.9,58,42,27,0.00,40.00,19,7,29,0.00
2013-9-1,75.0,65.6,59.0,55.0,46.6,43.0,87,51,32,0.00,40.00,11,5,17,0.00
2013-9-2,76.0,65.4,59.0,56.0,52.7,48.0,85,65,39,0.00,40.00,16,6,27,0.00
2013-9-3,77.0,64.1,54.0,57.0,51.3,45.0,84,65,31,0.00,40.00,19,8,25,0.00
2013-9-4,79.0,65.3,55.0,52.0,49.3,44.0,82,59,28,0.00,40.00,16,7,22,0.00
2013-9-5,83.0,70.6,59.0,50.0,44.0,36.0,70,41,19,0.00,40.00,18,10,25,0.00
2013-9-6,82.0,69.3,62.0,47.0,42.9,34.0,56,40,17,0.00,40.00,19,10,29,0.00
2013-9-7,76.0,61.0,53.0,53.0,44.9,-99.9,93,60,33,0.00,40.00,20,9,30,0.00
2013-9-8,60.0,54.2,51.0,51.0,49.9,48.0,94,85,66,0.00,40.00,14,7,16,0.00
2013-9-9,69.0,57.8,48.0,49.0,46.2,40.0,90,67,38,0.00,40.00,17,8,25,0.00
2013-9-10,67.0,58.6,53.0,51.0,45.0,41.0,75,61,40,0.00,40.00,16,7,23,0.00
2013-9-11,67.0,58.4,52.0,55.0,50.0,48.0,94,74,50,0.00,40.00,18,11,22,0.00
2013-9-12,65.0,55.3,51.0,50.0,47.3,42.0,93,75,48,0.00,40.00,17,10,29,0.00
2013-9-13,58.0,53.4,50.0,53.0,49.4,47.0,93,86,74,0.00,40.00,15,9,20,0.00
2013-9-14,62.0,52.2,49.0,52.0,46.5,-99.9,93,84,67,0.00,40.00,11,5,16,0.00
2013-9-15,64.0,54.5,46.0,53.0,48.2,45.0,94,80,59,0.00,40.00,11,6,13,0.00
2013-9-16,74.0,58.7,49.0,49.0,44.9,35.0,87,64,25,0.00,40.00,12,8,22,0.00
2013-9-17,72.0,62.5,55.0,52.0,42.9,29.0,73,51,22,0.00,40.00,25,11,47,0.00
2013-9-18,68.0,57.6,45.0,39.0,34.1,22.0,61,43,25,0.00,40.00,27,16,44,0.00
2013-9-19,59.0,46.9,34.0,28.0,24.7,19.0,77,44,23,0.00,40.00,14,8,22,0.00
2013-9-20,73.0,55.1,36.0,31.0,26.9,20.0,65,38,14,0.00,40.00,14,8,20,0.00
2013-9-21,73.0,62.7,50.0,31.0,22.7,-99.9,39,24,14,0.00,40.00,19,8,33,0.00
2013-9-22,62.0,55.7,46.0,37.0,30.8,24.0,69,40,26,0.00,40.00,21,10,30,0.00
2013-9-23,56.0,48.6,43.0,35.0,31.6,29.0,69,52,36,0.00,40.00,22,11,28,0.00
2013-9-24,67.0,51.6,41.0,31.0,25.6,9.0,64,42,10,0.00,40.00,21,10,29,0.00
2013-9-25,61.0,47.1,33.0,40.0,27.2,19.0,95,55,19,0.00,40.00,23,11,31,0.00
2013-9-26,42.0,34.8,32.0,34.0,32.0,30.0,95,89,63,0.00,40.00,15,6,17,0.00
2013-9-27,37.0,33.0,31.0,32.0,30.0,26.0,96,88,74,0.00,40.00,19,9,24,0.00
2013-9-28,53.0,35.8,28.0,29.0,22.5,-99.9,90,65,27,0.00,40.00,13,7,18,0.00
2013-9-29,64.0,51.9,39.0,26.0,21.7,18.0,54,32,17,0.00,40.00,32,13,44,0.00
2013-9-30,68.0,61.3,55.0,27.0,22.8,19.0,32,23,19,0.00,40.00,28,16,37,0.00
2013-10-1,61.0,54.8,50.0,31.0,28.8,26.0,40,36,31,0.00,40.00,10,4,14,0.00
2013-10-2,63.0,48.9,41.0,40.0,32.8,27.0,89,56,28,0.00,40.00,20,8,26,0.00
2013-10-3,44.0,35.7,29.0,39.0,28.1,19.0,94,74,48,0.00,40.00,19,11,34,0.00
2013-10-4,35.0,29.1,25.0,29.0,25.8,22.0,95,87,66,0.00,40.00,13,7,19,0.00
2013-10-5,45.0,35.0,26.0,27.0,23.7,22.0,83,64,43,0.00,40.00,15,6,18,0.00
2013-10-6,59.0,42.6,29.0,28.0,24.3,21.0,76,52,26,0.00,40.00,14,8,17,0.00
2013-10-7,69.0,50.7,40.0,29.0,22.9,13.0,58,37,13,0.00,40.00,15,9,22,0.00
2013-10-8,57.0,50.4,42.0,25.0,20.8,12.0,45,32,17,0.00,40.00,15,9,21,0.00
2013-10-9,59.0,44.1,33.0,37.0,24.9,19.0,90,50,22,0.00,40.00,16,9,26,0.00
2013-10-10,41.0,37.0,34.0,37.0,34.6,33.0,96,90,77,0.00,40.00,16,8,20,0.00
2013-10-11,45.0,37.7,31.0,33.0,28.1,22.0,94,70,40,0.00,40.00,21,9,27,0.00
2013-10-12,52.0,39.1,31.0,33.0,21.7,-99.9,77,54,27,0.00,40.00,12,7,18,0.00
2013-10-13,46.0,40.3,35.0,38.0,34.3,30.0,95,79,60,0.00,40.00,16,7,22,0.00
2013-10-14,41.0,34.7,32.0,34.0,30.8,27.0,96,85,59,0.00,40.00,18,8,23,0.00
2013-10-15,41.0,31.9,27.0,28.0,23.6,17.0,92,73,44,0.00,40.00,14,6,18,0.00
2013-10-16,43.0,33.7,24.0,23.0,19.9,17.0,79,58,35,0.00,40.00,16,8,22,0.00
2013-10-17,47.0,37.4,28.0,22.0,19.5,16.0,69,50,29,0.00,40.00,22,10,32,0.00
2013-10-18,46.0,38.6,32.0,22.0,21.0,19.0,63,49,37,0.00,40.00,18,8,22,0.00
2013-10-19,51.0,39.3,30.0,21.0,14.5,-99.9,65,40,23,0.00,40.00,19,10,26,0.00
2013-10-20,50.0,43.0,35.0,22.0,17.4,12.0,51,36,26,0.00,40.00,19,8,24,0.00
2013-10-21,54.0,41.9,31.0,24.0,21.9,18.0,70,46,26,0.00,40.00,16,6,20,0.00
2013-10-22,57.0,44.3,33.0,25.0,22.7,20.0,63,44,23,0.00,40.00,13,8,20,0.00
2013-10-23,61.0,43.9,33.0,25.0,22.4,16.0,67,44,21,0.00,40.00,15,7,17,0.00
2013-10-24,61.0,47.0,37.0,23.0,20.6,15.0,53,36,18,0.00,40.00,13,8,18,0.00
2013-10-25,61.0,49.5,41.0,22.0,19.6,15.0,42,31,19,0.00,40.00,17,7,21,0.00
2013-10-27,49.0,49.0,49.0,19.0,19.0,19.0,29,29,29,0.00,40.00,4,4,11,0.00
2013-12-4,9.0,5.5,2.0,6.0,2.2,-2.0,87,85,84,0.00,40.00,20,9,27,0.00
2013-12-5,9.0,0.9,-6.0,6.0,-3.1,-10.0,86,82,80,0.00,40.00,10,7,15,0.00
2013-12-6,9.0,1.4,-6.0,3.0,-4.2,-10.0,81,77,64,0.00,40.00,10,7,12,0.00
2013-12-7,14.0,10.2,7.0,12.0,-0.3,-99.9,90,80,78,0.00,40.00,19,12,22,0.00
2013-12-8,8.0,3.9,0.0,5.0,0.0,-5.0,87,83,74,0.00,40.00,21,13,28,0.00
2013-12-9,7.0,1.0,-4.0,0.0,-3.3,-8.0,85,81,69,0.00,40.00,19,11,25,0.00
2013-12-10,13.0,8.2,-2.0,1.0,-1.6,-7.0,80,64,60,0.00,40.00,12,9,12,0.00
2013-12-11,28.0,24.9,17.0,13.0,11.9,11.0,78,58,50,0.00,40.00,11,8,13,0.00
2013-12-12,26.0,21.2,16.0,14.0,11.1,8.0,78,64,56,0.00,40.00,10,8,10,0.00
2013-12-13,26.0,20.7,17.0,16.0,11.9,10.0,86,68,55,0.00,40.00,13,9,16,0.00
2013-12-14,24.0,17.6,15.0,20.0,3.3,-99.9,91,85,77,0.00,40.00,12,8,18,0.00
2013-12-15,35.0,32.3,27.0,17.0,14.3,9.0,67,50,34,0.00,40.00,14,9,16,0.00
2013-12-16,42.0,37.5,28.0,16.0,12.9,10.0,47,36,31,0.00,40.00,16,11,20,0.00
2013-12-17,36.0,29.9,25.0,13.0,10.7,8.0,53,44,34,0.00,40.00,10,8,11,0.00
2013-12-18,43.0,38.5,30.0,19.0,13.9,11.0,46,36,30,0.00,40.00,12,7,13,0.00
2013-12-19,34.0,27.3,21.0,31.0,25.6,19.0,95,93,88,0.00,40.00,14,8,21,0.00
2013-12-20,24.0,16.8,12.0,22.0,14.7,10.0,93,91,89,0.00,40.00,13,6,14,0.00
2013-12-21,23.0,17.8,14.0,21.0,12.9,-99.9,93,89,89,0.00,40.00,13,8,16,0.00
2013-12-22,26.0,22.6,20.0,25.0,20.8,18.0,94,92,90,0.00,40.00,11,6,17,0.00
2013-12-23,32.0,30.1,27.0,31.0,28.8,25.0,95,94,88,0.00,40.00,13,6,18,0.00
2013-12-24,36.0,28.0,17.0,28.0,19.5,7.0,95,71,40,0.00,40.00,22,12,32,0.00
2013-12-25,26.0,18.7,12.0,9.0,6.6,5.0,74,60,43,0.00,40.00,15,6,16,0.00
2013-12-26,35.0,24.7,17.0,8.0,5.1,3.0,57,43,29,0.00,40.00,11,8,13,0.00
2013-12-27,42.0,30.1,23.0,17.0,13.6,7.0,67,50,32,0.00,40.00,12,7,12,0.00
2013-12-28,29.0,23.9,19.0,16.0,3.1,-99.9,78,54,52,0.00,40.00,9,4,11,0.00
2013-12-29,27.0,21.0,14.0,13.0,10.2,8.0,80,63,49,0.00,40.00,13,8,17,0.00
2013-12-30,35.0,24.2,17.0,13.0,9.2,4.0,70,53,29,0.00,40.00,10,7,15,0.00
2013-12-31,36.0,32.3,29.0,29.0,23.2,17.0,94,70,47,0.00,40.00,18,11,20,0.00
2014-1-1,34.0,29.5,22.0,23.0,20.0,17.0,80,67,52,0.00,40.00,22,10,27,0.00